Time;durP1;ratioP1;P1;durP2;ratioP2;P2;SDS_P1;SDS_P2;PMS_P1;PMS_P2;Temp;Humidity;BMP_temperature;BMP_pressure;BME280_temperature;BME280_humidity;BME280_pressure;Samples;Min_cycle;Max_cycle;Signal;HPM_P1;HPM_P2
2021/12/19 00:01:02;;;;;;;56.92;26.45;;;1.80;99.90;;;;;;5133874;27;20375;-69
2021/12/19 00:11:09;;;;;;;56.70;26.40;;;1.80;99.90;;;;;;5132667;27;20132;-70
2021/12/19 00:13:36;;;;;;;55.90;26.20;;;1.80;99.90;;;;;;5134234;27;20062;-69
2021/12/19 00:16:02;;;;;;;59.55;27.83;;;1.80;99.90;;;;;;5133005;27;20539;-68
2021/12/19 00:18:27;;;;;;;61.60;29.45;;;1.80;99.90;;;;;;5133838;27;20035;-69
2021/12/19 00:20:53;;;;;;;58.78;28.08;;;1.80;99.90;;;;;;5121816;27;20464;-69
2021/12/19 00:23:19;;;;;;;60.03;28.25;;;1.80;99.90;;;;;;5135339;27;20035;-69
2021/12/19 00:25:45;;;;;;;59.10;27.83;;;1.90;99.90;;;;;;5133424;27;20054;-69
2021/12/19 00:28:10;;;;;;;66.80;30.55;;;1.80;99.90;;;;;;5132400;27;20023;-70
2021/12/19 00:30:36;;;;;;;60.05;28.95;;;1.80;99.90;;;;;;5133567;27;20025;-69
2021/12/19 00:33:02;;;;;;;62.45;29.40;;;1.70;99.90;;;;;;5112799;28;20028;-69
2021/12/19 00:35:28;;;;;;;72.50;31.75;;;1.70;99.90;;;;;;5123175;27;20031;-69
2021/12/19 00:37:54;;;;;;;71.03;31.23;;;1.70;99.90;;;;;;5133974;27;20030;-69
2021/12/19 00:40:21;;;;;;;69.15;30.50;;;1.70;99.90;;;;;;5132599;27;20293;-69
2021/12/19 00:42:51;;;;;;;68.13;30.92;;;1.70;99.90;;;;;;5126392;27;20106;-69
2021/12/19 00:45:30;;;;;;;66.60;29.90;;;1.70;99.90;;;;;;5132661;27;20027;-69
2021/12/19 00:47:57;;;;;;;75.72;31.90;;;1.70;99.90;;;;;;5133203;27;20396;-69
2021/12/19 00:50:24;;;;;;;65.32;29.98;;;1.70;99.90;;;;;;5132660;27;20288;-70
2021/12/19 00:52:50;;;;;;;73.32;29.88;;;1.60;99.90;;;;;;5132367;27;20063;-69
2021/12/19 00:55:21;;;;;;;68.72;30.42;;;1.60;99.90;;;;;;5132145;27;20062;-69
2021/12/19 00:57:48;;;;;;;69.78;29.40;;;1.60;99.90;;;;;;5132353;27;20031;-69
2021/12/19 01:00:16;;;;;;;70.30;31.25;;;1.60;99.90;;;;;;5132765;27;20031;-69
2021/12/19 01:02:42;;;;;;;70.28;30.15;;;1.60;99.90;;;;;;5134001;27;20034;-69
2021/12/19 01:05:08;;;;;;;66.30;28.67;;;1.70;99.90;;;;;;5132302;27;20024;-69
2021/12/19 01:07:34;;;;;;;65.20;30.73;;;1.70;99.90;;;;;;5132994;27;20048;-70
2021/12/19 01:10:00;;;;;;;70.72;31.00;;;1.60;99.90;;;;;;5133106;27;20034;-69
2021/12/19 01:12:26;;;;;;;70.97;31.08;;;1.60;99.90;;;;;;5131683;27;20399;-69
2021/12/19 01:14:53;;;;;;;74.57;32.72;;;1.60;99.90;;;;;;5132490;27;20110;-69
2021/12/19 01:17:19;;;;;;;74.40;31.25;;;1.60;99.90;;;;;;5131629;27;20031;-69
2021/12/19 01:19:45;;;;;;;72.75;32.28;;;1.60;99.90;;;;;;5132572;27;20050;-69
2021/12/19 01:22:12;;;;;;;74.57;32.22;;;1.60;99.90;;;;;;5131894;27;20464;-69
2021/12/19 01:24:38;;;;;;;75.60;33.25;;;1.60;99.90;;;;;;5132741;27;20379;-69
2021/12/19 01:27:05;;;;;;;76.38;32.22;;;1.60;99.90;;;;;;5132618;27;20027;-69
2021/12/19 01:29:30;;;;;;;77.13;33.88;;;1.70;99.90;;;;;;5132554;27;20096;-69
2021/12/19 01:31:56;;;;;;;77.18;32.17;;;1.60;99.90;;;;;;5132237;27;20468;-69
2021/12/19 01:34:22;;;;;;;73.53;31.27;;;1.60;99.90;;;;;;5132033;27;20280;-69
2021/12/19 01:36:48;;;;;;;72.55;33.08;;;1.70;99.90;;;;;;5132673;27;20031;-69
2021/12/19 01:39:14;;;;;;;74.28;31.67;;;1.60;99.90;;;;;;5131968;27;20430;-70
2021/12/19 01:41:51;;;;;;;76.88;32.50;;;1.60;99.90;;;;;;5132367;27;20102;-70
2021/12/19 01:44:18;;;;;;;74.78;32.58;;;1.60;99.90;;;;;;5131582;27;20019;-69
2021/12/19 01:46:46;;;;;;;77.65;33.60;;;1.60;99.90;;;;;;5131943;27;20039;-69
2021/12/19 01:49:13;;;;;;;70.15;32.13;;;1.70;99.90;;;;;;5132022;27;20080;-69
2021/12/19 01:51:39;;;;;;;74.68;33.03;;;1.70;99.90;;;;;;5132355;28;20109;-70
2021/12/19 01:54:05;;;;;;;78.53;33.00;;;1.70;99.90;;;;;;5134080;27;20127;-69
2021/12/19 01:56:31;;;;;;;77.80;32.85;;;1.80;99.90;;;;;;5138150;27;20106;-69
2021/12/19 01:58:57;;;;;;;74.18;32.70;;;1.80;99.90;;;;;;5138662;27;20106;-69
2021/12/19 02:01:23;;;;;;;74.72;32.30;;;1.80;99.90;;;;;;5139428;27;20138;-69
2021/12/19 02:03:49;;;;;;;78.90;32.78;;;1.80;99.90;;;;;;5139587;27;20480;-69
2021/12/19 02:06:15;;;;;;;79.07;34.30;;;1.80;99.90;;;;;;5138452;27;20047;-69
2021/12/19 02:08:41;;;;;;;85.78;35.47;;;1.80;99.90;;;;;;5138491;27;20101;-69
2021/12/19 02:11:07;;;;;;;84.00;34.30;;;1.80;99.90;;;;;;5138344;27;20076;-69
2021/12/19 02:13:33;;;;;;;75.93;33.47;;;1.80;99.90;;;;;;5138697;27;20039;-69
2021/12/19 02:16:00;;;;;;;78.03;33.92;;;1.80;99.90;;;;;;5139186;27;20035;-69
2021/12/19 02:18:26;;;;;;;76.55;34.05;;;1.80;99.90;;;;;;5138359;27;20292;-69
2021/12/19 02:20:56;;;;;;;80.03;35.45;;;1.80;99.90;;;;;;5138670;27;20068;-69
2021/12/19 02:23:24;;;;;;;74.70;32.88;;;1.80;99.90;;;;;;5138639;27;20395;-70
2021/12/19 02:25:50;;;;;;;79.30;34.72;;;1.80;99.90;;;;;;5139153;27;20063;-69
2021/12/19 02:28:17;;;;;;;81.65;33.90;;;1.80;99.90;;;;;;5137826;27;20035;-69
2021/12/19 02:30:43;;;;;;;85.90;33.63;;;1.70;99.90;;;;;;5139318;27;20035;-69
2021/12/19 02:33:15;;;;;;;82.90;35.10;;;1.70;99.90;;;;;;5137889;27;20062;-70
2021/12/19 02:35:46;;;;;;;84.47;33.80;;;1.70;99.90;;;;;;5139050;27;20042;-69
2021/12/19 02:49:19;;;;;;;87.07;33.28;;;1.70;99.90;;;;;;5138472;27;20066;-69
2021/12/19 02:51:45;;;;;;;91.47;34.60;;;1.70;99.90;;;;;;5138406;27;20467;-69
2021/12/19 02:54:11;;;;;;;84.47;32.97;;;1.70;99.90;;;;;;5138204;27;20030;-69
2021/12/19 02:56:37;;;;;;;82.75;31.35;;;1.70;99.90;;;;;;5138907;27;20027;-69
2021/12/19 02:59:03;;;;;;;89.20;33.17;;;1.60;99.90;;;;;;5138183;27;20383;-70
2021/12/19 03:01:28;;;;;;;81.63;31.52;;;1.60;99.90;;;;;;5137884;27;20463;-70
2021/12/19 03:03:54;;;;;;;80.18;28.13;;;1.70;99.90;;;;;;5138887;27;20033;-69
2021/12/19 03:06:20;;;;;;;66.65;26.73;;;1.70;99.90;;;;;;5135147;27;20022;-69
2021/12/19 03:08:49;;;;;;;71.10;26.38;;;1.60;99.90;;;;;;5118378;27;20387;-70
2021/12/19 03:19:29;;;;;;;59.90;23.95;;;1.60;99.90;;;;;;5155597;27;20026;-69
2021/12/19 03:21:55;;;;;;;68.75;24.70;;;1.60;99.90;;;;;;5137439;27;20474;-70
2021/12/19 03:24:20;;;;;;;57.85;23.75;;;1.60;99.90;;;;;;5135568;27;20167;-69
2021/12/19 03:26:46;;;;;;;66.15;25.63;;;1.60;99.90;;;;;;5140765;27;20451;-70
2021/12/19 03:29:12;;;;;;;60.80;24.58;;;1.60;99.90;;;;;;5137574;27;20490;-69
2021/12/19 03:31:38;;;;;;;60.63;24.38;;;1.60;99.90;;;;;;5138831;27;20015;-69
2021/12/19 03:34:03;;;;;;;66.57;26.50;;;1.60;99.90;;;;;;5135063;27;20047;-69
2021/12/19 03:36:30;;;;;;;66.65;25.27;;;1.50;99.90;;;;;;5134212;27;20141;-69
2021/12/19 03:39:03;;;;;;;71.65;27.45;;;1.50;99.90;;;;;;5134489;27;20110;-70
2021/12/19 03:41:44;;;;;;;66.90;25.83;;;1.50;99.90;;;;;;5134058;27;20112;-69
2021/12/19 03:44:10;;;;;;;64.05;24.80;;;1.50;99.90;;;;;;5133104;27;20034;-69
2021/12/19 03:46:35;;;;;;;61.58;23.92;;;1.50;99.90;;;;;;5134200;27;20043;-69
2021/12/19 03:49:01;;;;;;;66.40;25.75;;;1.50;99.90;;;;;;5134313;27;20084;-69
2021/12/19 03:51:27;;;;;;;62.40;24.83;;;1.50;99.90;;;;;;5133585;27;20030;-69
2021/12/19 03:53:53;;;;;;;71.15;26.60;;;1.50;99.90;;;;;;5134845;27;20071;-69
2021/12/19 03:56:18;;;;;;;68.95;26.90;;;1.50;99.90;;;;;;5133569;27;20072;-69
2021/12/19 03:58:44;;;;;;;63.35;25.65;;;1.50;99.90;;;;;;5133859;27;20109;-69
2021/12/19 04:01:10;;;;;;;69.45;25.98;;;1.40;99.90;;;;;;5133917;27;20027;-69
2021/12/19 04:03:37;;;;;;;56.33;23.40;;;1.50;99.90;;;;;;5134120;27;20027;-69
2021/12/19 04:06:03;;;;;;;58.42;21.85;;;1.50;99.90;;;;;;5134341;27;20038;-69
2021/12/19 04:08:29;;;;;;;53.80;22.13;;;1.50;99.90;;;;;;5133122;27;20037;-69
2021/12/19 04:10:55;;;;;;;53.70;21.75;;;1.50;99.90;;;;;;5133879;27;20102;-70
2021/12/19 04:13:22;;;;;;;50.65;20.67;;;1.50;99.90;;;;;;5132950;27;20780;-69
2021/12/19 04:15:49;;;;;;;52.88;20.55;;;1.50;99.90;;;;;;5133762;27;20456;-69
2021/12/19 04:18:15;;;;;;;54.20;20.70;;;1.50;99.90;;;;;;5132104;27;20035;-69
2021/12/19 04:20:41;;;;;;;51.05;20.30;;;1.40;99.90;;;;;;5134066;27;20023;-69
2021/12/19 04:23:07;;;;;;;50.10;18.92;;;1.50;99.90;;;;;;5133503;27;20153;-70
2021/12/19 04:25:32;;;;;;;50.63;20.20;;;1.40;99.90;;;;;;5133277;27;20372;-69
2021/12/19 04:27:58;;;;;;;46.08;20.08;;;1.40;99.90;;;;;;5133469;27;20031;-70
2021/12/19 04:30:26;;;;;;;47.85;19.48;;;1.40;99.90;;;;;;5133182;27;20417;-70
2021/12/19 04:33:02;;;;;;;42.95;18.55;;;1.40;99.90;;;;;;5133415;27;20039;-70
2021/12/19 04:35:32;;;;;;;42.95;17.88;;;1.50;99.90;;;;;;5133235;27;20856;-70
2021/12/19 04:41:25;;;;;;;46.90;18.20;;;1.50;99.90;;;;;;5132887;27;20039;-69
2021/12/19 04:51:53;;;;;;;34.20;15.27;;;1.40;99.90;;;;;;5078300;28;20039;-69
2021/12/19 04:54:44;;;;;;;33.58;14.40;;;1.40;99.90;;;;;;5079862;28;20028;-70
2021/12/19 04:57:33;;;;;;;32.25;15.70;;;1.40;99.90;;;;;;5079275;28;20028;-69
2021/12/19 05:00:09;;;;;;;36.47;15.63;;;1.40;99.90;;;;;;5079826;28;20020;-69
2021/12/19 05:15:46;;;;;;;40.33;16.75;;;1.30;99.90;;;;;;5084186;28;20036;-69
2021/12/19 05:18:12;;;;;;;;;;;1.30;99.90;;;;;;5073037;28;20064;-70
2021/12/19 05:20:40;;;;;;;43.80;17.52;;;1.30;99.90;;;;;;5080593;28;19984;-69
2021/12/19 05:23:19;;;;;;;45.47;19.15;;;1.30;99.90;;;;;;5090359;28;20419;-70
2021/12/19 05:25:45;;;;;;;43.42;16.77;;;1.30;99.90;;;;;;5078922;28;20024;-70
2021/12/19 05:28:11;;;;;;;42.83;17.20;;;1.30;99.90;;;;;;5079996;28;20040;-69
2021/12/19 05:30:36;;;;;;;45.60;17.35;;;1.30;99.90;;;;;;5089817;28;20103;-69
2021/12/19 05:33:02;;;;;;;40.53;16.38;;;1.30;99.90;;;;;;5091894;28;20032;-71
2021/12/19 05:46:25;;;;;;;34.28;14.73;;;1.40;99.90;;;;;;5085615;28;20536;-69
2021/12/19 05:48:53;;;;;;;34.42;14.95;;;1.40;99.90;;;;;;5131661;27;20114;-69
2021/12/19 05:51:18;;;;;;;39.03;15.32;;;1.40;99.90;;;;;;5131581;27;20070;-69
2021/12/19 05:53:44;;;;;;;37.00;14.88;;;1.40;99.90;;;;;;5132641;27;20436;-70
2021/12/19 05:56:10;;;;;;;35.35;14.60;;;1.40;99.90;;;;;;5131520;28;20040;-70
2021/12/19 05:58:36;;;;;;;37.78;15.73;;;1.40;99.90;;;;;;5131530;28;20196;-70
2021/12/19 06:01:02;;;;;;;40.00;16.20;;;1.40;99.90;;;;;;5132552;27;20479;-70
2021/12/19 06:03:28;;;;;;;35.63;16.25;;;1.40;99.90;;;;;;5131113;28;20534;-69
2021/12/19 06:05:53;;;;;;;38.58;15.43;;;1.40;99.90;;;;;;5131976;28;20092;-69
2021/12/19 06:08:19;;;;;;;36.20;15.50;;;1.40;99.90;;;;;;5131485;28;20478;-69
2021/12/19 06:10:44;;;;;;;39.75;16.85;;;1.40;99.90;;;;;;5132282;28;20023;-70
2021/12/19 06:13:10;;;;;;;39.00;15.07;;;1.40;99.90;;;;;;5132481;28;20028;-69
2021/12/19 06:15:36;;;;;;;31.98;14.25;;;1.40;99.90;;;;;;5130634;28;20019;-69
2021/12/19 06:18:03;;;;;;;30.35;13.80;;;1.30;99.90;;;;;;5130983;28;20047;-69
2021/12/19 06:20:31;;;;;;;31.88;13.95;;;1.30;99.90;;;;;;5127235;28;20106;-69
2021/12/19 06:22:57;;;;;;;34.45;14.55;;;1.30;99.90;;;;;;5130311;27;20042;-69
2021/12/19 06:25:23;;;;;;;31.30;14.20;;;1.30;99.90;;;;;;5130167;28;20031;-69
2021/12/19 06:27:49;;;;;;;28.40;13.13;;;1.20;99.90;;;;;;5130735;28;20022;-69
2021/12/19 06:30:14;;;;;;;30.17;12.88;;;1.20;99.90;;;;;;5130421;28;20444;-69
2021/12/19 06:32:40;;;;;;;33.97;13.80;;;1.10;99.90;;;;;;5131039;28;20360;-69
2021/12/19 06:35:11;;;;;;;31.55;13.30;;;1.10;99.90;;;;;;5130355;28;20028;-69
2021/12/19 06:37:38;;;;;;;26.95;11.80;;;1.10;99.90;;;;;;5128390;28;20458;-69
2021/12/19 06:40:09;;;;;;;22.23;10.68;;;1.10;99.90;;;;;;5130437;27;20028;-69
2021/12/19 06:42:35;;;;;;;30.42;13.45;;;1.10;99.90;;;;;;5130941;27;20660;-70
2021/12/19 06:45:01;;;;;;;31.92;12.90;;;1.10;99.90;;;;;;5134360;27;20122;-70
2021/12/19 06:47:27;;;;;;;35.70;13.93;;;1.10;99.90;;;;;;5133348;27;20425;-70
2021/12/19 06:49:53;;;;;;;31.35;13.02;;;1.10;99.90;;;;;;5130543;27;20068;-70
2021/12/19 06:52:19;;;;;;;25.98;12.25;;;1.00;99.90;;;;;;5133493;27;20463;-68
2021/12/19 06:54:45;;;;;;;29.33;12.52;;;1.00;99.90;;;;;;5134557;27;20050;-68
2021/12/19 06:57:10;;;;;;;25.20;11.98;;;1.00;99.90;;;;;;5134253;27;20307;-68
2021/12/19 06:59:36;;;;;;;27.02;11.73;;;0.90;99.90;;;;;;5132863;27;20659;-69
2021/12/19 07:02:02;;;;;;;25.50;11.07;;;0.90;99.90;;;;;;5134313;27;20031;-69
2021/12/19 07:04:27;;;;;;;22.52;10.02;;;0.90;99.90;;;;;;5133554;27;21489;-70
2021/12/19 07:06:53;;;;;;;26.67;10.95;;;0.90;99.90;;;;;;5133602;27;20019;-69
2021/12/19 07:09:19;;;;;;;24.70;11.15;;;0.90;99.90;;;;;;5133363;27;20102;-69
2021/12/19 07:11:44;;;;;;;26.08;10.90;;;0.90;99.90;;;;;;5133863;27;20083;-69
2021/12/19 07:14:10;;;;;;;22.27;10.15;;;0.90;99.90;;;;;;5133806;27;20031;-73
2021/12/19 07:16:36;;;;;;;24.60;11.13;;;0.80;99.90;;;;;;5132553;27;20112;-69
2021/12/19 07:19:01;;;;;;;24.23;10.32;;;0.80;99.90;;;;;;5133112;27;20121;-69
2021/12/19 07:21:29;;;;;;;25.45;10.60;;;0.80;99.90;;;;;;5132521;27;20038;-69
2021/12/19 07:23:55;;;;;;;24.95;10.60;;;0.80;99.90;;;;;;5131243;27;20127;-69
2021/12/19 07:26:21;;;;;;;22.55;10.10;;;0.80;99.90;;;;;;5132592;27;20065;-69
2021/12/19 07:28:48;;;;;;;22.83;9.80;;;0.80;99.90;;;;;;5133695;27;20498;-69
2021/12/19 07:31:16;;;;;;;23.48;11.18;;;0.80;99.90;;;;;;5130160;27;20039;-69
2021/12/19 07:33:44;;;;;;;25.52;9.55;;;0.80;99.90;;;;;;5133541;27;20027;-68
2021/12/19 07:36:10;;;;;;;18.55;8.73;;;0.80;99.90;;;;;;5133385;27;20027;-69
2021/12/19 07:38:48;;;;;;;21.20;9.63;;;0.90;99.90;;;;;;5132254;27;20653;-69
2021/12/19 07:41:13;;;;;;;22.08;9.55;;;0.90;99.90;;;;;;5130047;27;20490;-69
2021/12/19 07:43:39;;;;;;;19.17;8.05;;;0.90;99.90;;;;;;5133015;27;20039;-73
2021/12/19 07:46:04;;;;;;;19.35;7.95;;;0.90;99.90;;;;;;5132884;27;20031;-69
2021/12/19 07:48:30;;;;;;;15.23;8.05;;;0.90;99.90;;;;;;5114191;27;20046;-74
2021/12/19 07:50:56;;;;;;;19.60;7.95;;;0.80;99.90;;;;;;5133206;27;20015;-73
2021/12/19 07:53:21;;;;;;;18.70;8.55;;;0.90;99.90;;;;;;5113973;27;20114;-72
2021/12/19 07:55:47;;;;;;;14.40;7.43;;;0.80;99.90;;;;;;5132858;27;20054;-72
2021/12/19 07:58:13;;;;;;;19.10;8.25;;;0.90;99.90;;;;;;5133121;27;20023;-72
2021/12/19 08:00:39;;;;;;;17.80;7.38;;;0.80;99.90;;;;;;5132467;27;20019;-72
2021/12/19 08:03:04;;;;;;;12.95;6.68;;;0.80;99.90;;;;;;5132895;27;20538;-72
2021/12/19 08:05:30;;;;;;;17.50;7.95;;;0.90;99.90;;;;;;5131638;27;20030;-71
2021/12/19 08:08:00;;;;;;;15.43;7.03;;;0.90;99.90;;;;;;5132670;27;20023;-72
2021/12/19 08:12:52;;;;;;;19.27;7.57;;;0.90;99.90;;;;;;5130101;27;20035;-70
2021/12/19 08:15:17;;;;;;;16.73;7.00;;;0.90;99.90;;;;;;5131806;27;20023;-69
2021/12/19 08:17:43;;;;;;;16.02;7.07;;;0.90;99.90;;;;;;5133293;27;20436;-71
2021/12/19 08:20:14;;;;;;;18.25;7.38;;;0.90;99.90;;;;;;5132485;27;20460;-70
2021/12/19 08:22:39;;;;;;;14.20;6.68;;;0.90;99.90;;;;;;5131766;27;20049;-71
2021/12/19 08:25:06;;;;;;;14.55;6.78;;;1.00;99.90;;;;;;5131963;27;20456;-71
2021/12/19 08:27:36;;;;;;;16.45;6.63;;;1.00;99.90;;;;;;5128358;27;20486;-70
2021/12/19 08:30:08;;;;;;;16.35;6.18;;;1.00;99.90;;;;;;5132386;27;20035;-70
2021/12/19 08:32:34;;;;;;;15.50;6.45;;;1.10;99.90;;;;;;5128917;27;20138;-70
2021/12/19 08:34:59;;;;;;;13.75;5.97;;;1.10;99.90;;;;;;5132626;27;20039;-71
2021/12/19 08:37:25;;;;;;;12.35;5.90;;;1.10;99.90;;;;;;5131116;27;20419;-70
2021/12/19 08:39:51;;;;;;;12.32;5.63;;;1.20;99.90;;;;;;5131917;27;20073;-69
2021/12/19 08:42:20;;;;;;;12.13;5.75;;;1.20;99.90;;;;;;5131411;27;20039;-68
2021/12/19 08:44:45;;;;;;;13.68;5.93;;;1.20;99.90;;;;;;5110504;27;20125;-70
2021/12/19 08:47:11;;;;;;;12.32;5.85;;;1.20;99.90;;;;;;5132984;27;20078;-77
2021/12/19 08:49:39;;;;;;;14.27;7.13;;;1.20;99.90;;;;;;5129332;27;20079;-74
2021/12/19 08:52:06;;;;;;;12.05;5.15;;;1.20;99.90;;;;;;5116443;27;20027;-73
2021/12/19 08:54:32;;;;;;;15.10;6.47;;;1.30;99.90;;;;;;5130884;27;20027;-72
2021/12/19 08:56:58;;;;;;;12.95;6.20;;;1.30;99.90;;;;;;5131930;27;20161;-71
2021/12/19 08:59:25;;;;;;;13.13;5.88;;;1.30;99.90;;;;;;5131756;27;20544;-71
2021/12/19 09:01:50;;;;;;;9.98;5.90;;;1.40;99.90;;;;;;5138801;27;20383;-71
2021/12/19 09:04:16;;;;;;;11.15;5.32;;;1.40;99.90;;;;;;5132089;27;20035;-72
2021/12/19 09:06:42;;;;;;;13.75;6.13;;;1.40;99.90;;;;;;5132462;27;20030;-69
2021/12/19 09:09:08;;;;;;;11.55;5.93;;;1.50;99.90;;;;;;5132239;27;20042;-71
2021/12/19 09:11:34;;;;;;;12.57;6.00;;;1.50;99.90;;;;;;5131713;27;20467;-75
2021/12/19 09:14:03;;;;;;;13.27;5.82;;;1.50;99.90;;;;;;5132098;27;20042;-79
2021/12/19 09:16:28;;;;;;;16.35;6.65;;;1.60;99.90;;;;;;5131500;27;20471;-75
2021/12/19 09:18:54;;;;;;;15.40;6.60;;;1.60;99.90;;;;;;5132959;27;20034;-70
2021/12/19 09:21:20;;;;;;;15.25;7.05;;;1.60;99.90;;;;;;5131458;27;20515;-69
2021/12/19 09:23:45;;;;;;;14.23;6.15;;;1.60;99.90;;;;;;5131806;27;20035;-70
2021/12/19 09:26:11;;;;;;;11.30;5.93;;;1.70;99.90;;;;;;5136228;27;20027;-71
2021/12/19 09:28:38;;;;;;;8.85;4.75;;;1.70;99.90;;;;;;5153057;27;20025;-73
2021/12/19 09:31:07;;;;;;;11.13;5.35;;;1.80;99.90;;;;;;5140118;27;20035;-72
2021/12/19 09:33:32;;;;;;;11.40;5.47;;;1.80;99.90;;;;;;5134648;27;20497;-72
2021/12/19 09:35:59;;;;;;;9.85;5.13;;;1.80;99.90;;;;;;5150415;27;20035;-72
2021/12/19 09:38:27;;;;;;;11.40;5.70;;;1.90;99.90;;;;;;5134239;27;20110;-72
2021/12/19 09:41:11;;;;;;;10.25;5.25;;;1.90;99.90;;;;;;5148719;27;20034;-75
2021/12/19 09:43:43;;;;;;;10.88;5.47;;;2.00;99.90;;;;;;5139984;27;20101;-69
2021/12/19 09:46:15;;;;;;;9.27;5.28;;;2.00;99.90;;;;;;5144983;27;20122;-72
2021/12/19 09:48:45;;;;;;;9.07;4.63;;;2.10;99.90;;;;;;5144628;27;20035;-77
2021/12/19 09:51:12;;;;;;;7.45;3.97;;;2.10;99.90;;;;;;5150517;27;20041;-71
2021/12/19 09:53:39;;;;;;;3.92;2.67;;;2.10;99.90;;;;;;5133650;27;20027;-73
2021/12/19 09:56:05;;;;;;;3.40;2.15;;;2.20;99.90;;;;;;5132506;27;20038;-75
2021/12/19 09:58:32;;;;;;;5.05;3.13;;;2.30;99.90;;;;;;5131227;28;20023;-75
2021/12/19 10:01:03;;;;;;;8.05;4.53;;;2.30;99.90;;;;;;5132004;27;20538;-74
2021/12/19 10:03:35;;;;;;;9.00;3.35;;;2.30;99.90;;;;;;5131814;28;20421;-69
2021/12/19 10:06:21;;;;;;;6.53;3.85;;;2.40;99.90;;;;;;5132478;27;20027;-73
2021/12/19 10:08:52;;;;;;;6.43;3.78;;;2.40;99.90;;;;;;5114339;28;20024;-73
2021/12/19 10:14:33;;;;;;;5.72;3.33;;;2.40;99.90;;;;;;5131939;27;20114;-72
2021/12/19 10:17:01;;;;;;;5.72;3.42;;;2.40;99.90;;;;;;5135967;27;20031;-73
2021/12/19 10:19:54;;;;;;;6.72;3.78;;;2.40;99.90;;;;;;5134857;27;20039;-73
2021/12/19 10:22:25;;;;;;;5.97;3.80;;;2.40;99.90;;;;;;5136057;27;20031;-72
2021/12/19 10:24:53;;;;;;;8.45;3.42;;;2.40;99.90;;;;;;5135845;27;20055;-71
2021/12/19 10:27:44;;;;;;;7.53;4.10;;;2.40;99.90;;;;;;5136169;27;20034;-72
2021/12/19 10:30:09;;;;;;;6.10;3.13;;;2.40;99.90;;;;;;5126038;27;20036;-73
2021/12/19 10:32:35;;;;;;;6.72;3.83;;;2.40;99.90;;;;;;5135529;27;20041;-73
2021/12/19 10:35:17;;;;;;;3.80;2.50;;;2.40;99.90;;;;;;5135929;27;20521;-73
2021/12/19 10:37:43;;;;;;;4.25;2.60;;;2.50;99.90;;;;;;5135188;27;20138;-73
2021/12/19 10:40:10;;;;;;;4.90;2.70;;;2.50;99.90;;;;;;5135677;27;20027;-70
2021/12/19 10:42:59;;;;;;;6.43;3.22;;;2.50;99.90;;;;;;5134591;27;20042;-71
2021/12/19 10:45:33;;;;;;;8.75;3.50;;;2.60;99.90;;;;;;5134320;27;20072;-69
2021/12/19 10:48:25;;;;;;;4.82;2.85;;;2.60;99.90;;;;;;5135549;27;20055;-73
2021/12/19 10:50:53;;;;;;;5.63;2.75;;;2.70;99.90;;;;;;5135910;27;20038;-74
2021/12/19 10:53:23;;;;;;;4.55;2.50;;;2.70;99.90;;;;;;5135544;27;20035;-73
2021/12/19 10:55:49;;;;;;;;;;;2.70;99.90;;;;;;5135870;27;20035;-72
2021/12/19 10:58:25;;;;;;;11.35;4.72;;;2.70;99.90;;;;;;5135218;27;20378;-71
2021/12/19 11:01:05;;;;;;;5.13;2.83;;;2.70;99.90;;;;;;5134979;27;20103;-71
2021/12/19 11:03:55;;;;;;;4.82;2.90;;;2.70;99.90;;;;;;5125147;27;20066;-71
2021/12/19 11:06:33;;;;;;;4.32;2.92;;;2.70;99.90;;;;;;5134038;27;20034;-73
2021/12/19 11:09:04;;;;;;;10.07;3.38;;;2.80;99.90;;;;;;5114597;28;20024;-70
2021/12/19 11:11:32;;;;;;;6.22;3.90;;;2.80;99.90;;;;;;5129588;27;20029;-69
2021/12/19 11:13:58;;;;;;;7.15;4.07;;;2.80;99.90;;;;;;5133919;27;20375;-76
2021/12/19 11:16:24;;;;;;;4.95;2.75;;;2.90;99.90;;;;;;5132848;27;20105;-71
2021/12/19 11:18:50;;;;;;;3.95;2.97;;;2.90;99.90;;;;;;5134075;27;20135;-77
2021/12/19 11:21:17;;;;;;;3.90;2.33;;;2.90;99.90;;;;;;5134782;27;20041;-78
2021/12/19 11:23:43;;;;;;;3.90;2.70;;;2.90;99.90;;;;;;5133520;27;20053;-77
2021/12/19 11:26:09;;;;;;;4.43;2.72;;;2.90;99.90;;;;;;5134094;27;20023;-74
2021/12/19 11:28:36;;;;;;;4.75;3.10;;;2.90;99.90;;;;;;5133195;27;20042;-74
2021/12/19 11:31:02;;;;;;;4.53;2.67;;;2.90;99.90;;;;;;5134291;27;20483;-76
2021/12/19 11:33:40;;;;;;;3.17;2.35;;;2.90;99.90;;;;;;5133273;27;20032;-74
2021/12/19 11:36:07;;;;;;;4.25;2.22;;;2.80;99.90;;;;;;5135621;27;20050;-77
2021/12/19 11:38:36;;;;;;;4.07;2.40;;;2.80;99.90;;;;;;5132926;27;20027;-74
2021/12/19 11:41:09;;;;;;;3.47;1.85;;;2.90;99.90;;;;;;5133914;27;20479;-73
2021/12/19 11:43:40;;;;;;;4.97;2.97;;;2.90;99.90;;;;;;5133623;27;20031;-70
2021/12/19 11:46:16;;;;;;;4.68;2.85;;;2.80;99.90;;;;;;5133307;27;20046;-69
2021/12/19 11:48:42;;;;;;;5.45;3.33;;;2.70;99.90;;;;;;5132794;27;20605;-77
2021/12/19 11:51:20;;;;;;;5.25;3.13;;;2.70;99.90;;;;;;5133619;27;20080;-77
2021/12/19 11:53:46;;;;;;;5.47;3.08;;;2.60;99.90;;;;;;5132897;27;20069;-72
2021/12/19 11:56:20;;;;;;;6.32;3.65;;;2.60;99.90;;;;;;5133582;27;20038;-69
2021/12/19 11:58:50;;;;;;;4.72;3.38;;;2.60;99.90;;;;;;5112755;28;20387;-69
2021/12/19 12:01:28;;;;;;;6.47;3.58;;;2.70;99.90;;;;;;5129266;27;20031;-69
2021/12/19 12:03:59;;;;;;;5.68;3.83;;;2.70;99.90;;;;;;5116801;27;20027;-69
2021/12/19 12:06:31;;;;;;;5.78;4.00;;;2.80;99.90;;;;;;5132617;27;20039;-70
2021/12/19 12:09:04;;;;;;;5.35;3.47;;;2.80;99.90;;;;;;5133337;27;20054;-72
2021/12/19 12:11:31;;;;;;;5.88;3.63;;;2.70;99.90;;;;;;5127327;27;20066;-68
2021/12/19 12:14:20;;;;;;;5.97;3.83;;;2.70;99.90;;;;;;5112557;27;21472;-70
2021/12/19 12:16:54;;;;;;;5.93;3.40;;;2.70;99.90;;;;;;5132371;27;20041;-70
2021/12/19 12:19:43;;;;;;;7.35;4.05;;;2.70;99.90;;;;;;5131907;27;20027;-69
2021/12/19 12:22:27;;;;;;;7.22;3.63;;;2.60;99.90;;;;;;5112753;28;20039;-69
2021/12/19 12:25:15;;;;;;;5.82;3.97;;;2.60;99.90;;;;;;5120656;27;20119;-69
2021/12/19 12:27:42;;;;;;;5.30;3.50;;;2.60;99.90;;;;;;5130781;27;20042;-70
2021/12/19 12:30:22;;;;;;;5.60;3.60;;;2.60;99.90;;;;;;5117770;27;20361;-69
2021/12/19 12:32:48;;;;;;;5.72;3.58;;;2.70;99.90;;;;;;5132645;27;20035;-68
2021/12/19 12:35:16;;;;;;;4.68;3.85;;;2.70;99.90;;;;;;5132605;27;20370;-69
2021/12/19 12:37:43;;;;;;;5.65;3.75;;;2.70;99.90;;;;;;5129549;27;20483;-69
2021/12/19 12:40:16;;;;;;;6.07;3.95;;;2.70;99.90;;;;;;5117498;27;20028;-70
2021/12/19 12:43:18;;;;;;;6.40;3.85;;;2.60;99.90;;;;;;5130880;27;20031;-69
2021/12/19 12:46:17;;;;;;;5.97;3.88;;;2.60;99.90;;;;;;5037532;28;20032;-69
2021/12/19 12:48:53;;;;;;;6.68;3.72;;;2.60;99.90;;;;;;5105786;28;20602;-69
2021/12/19 12:51:33;;;;;;;5.80;4.03;;;2.60;99.90;;;;;;5127766;27;20480;-69
2021/12/19 12:54:03;;;;;;;;;;;2.60;99.90;;;;;;5132806;27;20526;-69
2021/12/19 12:56:35;;;;;;;;;;;2.60;99.90;;;;;;5131752;27;19911;-69
2021/12/19 12:59:03;;;;;;;6.20;3.65;;;2.60;99.90;;;;;;5132463;27;19911;-69
2021/12/19 13:01:45;;;;;;;6.95;4.13;;;2.60;99.90;;;;;;5131791;27;20031;-70
2021/12/19 13:04:16;;;;;;;6.45;4.20;;;2.60;99.90;;;;;;5123563;27;20031;-69
2021/12/19 13:06:50;;;;;;;11.93;4.95;;;2.70;99.90;;;;;;5131327;27;20027;-68
2021/12/19 13:09:32;;;;;;;6.97;4.57;;;2.60;99.90;;;;;;5131478;27;20019;-70
2021/12/19 13:11:59;;;;;;;6.45;4.10;;;2.70;99.90;;;;;;5124883;27;20030;-69
2021/12/19 13:14:27;;;;;;;8.68;5.18;;;2.60;99.90;;;;;;5122039;27;20076;-70
2021/12/19 13:17:01;;;;;;;7.07;4.45;;;2.60;99.90;;;;;;5131941;27;20068;-69
2021/12/19 13:19:46;;;;;;;7.55;4.88;;;2.60;99.90;;;;;;5131926;27;20130;-70
2021/12/19 13:22:22;;;;;;;8.90;5.50;;;2.60;99.90;;;;;;5131540;27;20114;-69
2021/12/19 13:24:49;;;;;;;8.32;5.50;;;2.60;99.90;;;;;;5131069;27;20098;-69
2021/12/19 13:27:19;;;;;;;8.75;5.20;;;2.50;99.90;;;;;;5125242;27;20114;-69
2021/12/19 13:30:09;;;;;;;8.55;5.18;;;2.50;99.90;;;;;;5110707;27;20073;-69
2021/12/19 13:32:52;;;;;;;10.18;5.45;;;2.50;99.90;;;;;;5109892;28;20031;-69
2021/12/19 13:35:21;;;;;;;9.85;5.50;;;2.60;99.90;;;;;;5128212;27;20383;-69
2021/12/19 13:37:49;;;;;;;8.52;4.65;;;2.60;99.90;;;;;;5130721;27;20123;-70
2021/12/19 13:40:16;;;;;;;7.85;4.80;;;2.60;99.90;;;;;;5131340;27;20024;-69
2021/12/19 13:42:44;;;;;;;7.60;4.90;;;2.60;99.90;;;;;;5127702;27;20471;-70
2021/12/19 13:45:37;;;;;;;7.03;4.88;;;2.60;99.90;;;;;;5131383;27;20035;-70
2021/12/19 13:48:26;;;;;;;8.23;5.35;;;2.60;99.90;;;;;;5131577;27;20050;-70
2021/12/19 13:51:00;;;;;;;9.13;5.53;;;2.50;99.90;;;;;;5118177;27;20047;-69
2021/12/19 13:53:28;;;;;;;9.18;5.57;;;2.50;99.90;;;;;;5131571;27;20110;-69
2021/12/19 13:56:00;;;;;;;8.55;5.65;;;2.40;99.90;;;;;;5122166;28;20023;-69
2021/12/19 13:58:32;;;;;;;7.93;5.65;;;2.40;99.90;;;;;;5129113;27;20019;-69
2021/12/19 14:00:58;;;;;;;8.43;5.72;;;2.50;99.90;;;;;;5121363;28;20027;-70
2021/12/19 14:03:58;;;;;;;12.10;6.80;;;2.50;99.90;;;;;;5131106;28;20168;-70